Time;durP1;ratioP1;P1;durP2;ratioP2;P2;SDS_P1;SDS_P2;PMS_P1;PMS_P2;Temp;Humidity;BMP_temperature;BMP_pressure;BME280_temperature;BME280_humidity;BME280_pressure;Samples;Min_cycle;Max_cycle;Signal;HPM_P1;HPM_P2
2022/01/07 00:01:34;;;;;;;15.93;8.50;;;;;;;;;;5112211;28;20043;-47
2022/01/07 00:04:00;;;;;;;16.50;8.70;;;;;;;;;;5112897;28;20405;-47
2022/01/07 00:06:26;;;;;;;15.63;7.63;;;;;;;;;;5112665;28;20035;-47
2022/01/07 00:08:52;;;;;;;16.40;7.50;;;;;;;;;;5112393;28;20043;-50
2022/01/07 00:11:18;;;;;;;17.95;8.27;;;;;;;;;;5108575;28;20047;-47
2022/01/07 00:13:45;;;;;;;13.88;7.00;;;;;;;;;;5100163;28;20047;-48
2022/01/07 00:16:11;;;;;;;14.27;7.45;;;;;;;;;;5112234;28;20062;-47
2022/01/07 00:18:39;;;;;;;17.92;7.70;;;;;;;;;;5112102;28;20048;-47
2022/01/07 00:21:06;;;;;;;10.02;6.30;;;;;;;;;;5112041;28;20083;-48
2022/01/07 00:23:32;;;;;;;18.60;7.18;;;;;;;;;;5112080;28;20074;-47
2022/01/07 00:25:58;;;;;;;15.18;6.57;;;;;;;;;;5111348;28;20047;-47
2022/01/07 00:28:24;;;;;;;13.48;7.28;;;;;;;;;;5111605;28;20087;-50
2022/01/07 00:30:50;;;;;;;13.57;6.10;;;;;;;;;;5112070;28;20051;-48
2022/01/07 00:33:16;;;;;;;15.63;7.07;;;;;;;;;;5111639;28;20046;-47
2022/01/07 00:35:42;;;;;;;12.60;6.30;;;;;;;;;;5111627;28;20191;-47
2022/01/07 00:38:08;;;;;;;15.05;6.72;;;;;;;;;;5111797;28;20445;-49
2022/01/07 00:40:35;;;;;;;17.55;8.13;;;;;;;;;;5111751;28;20092;-48
2022/01/07 00:43:01;;;;;;;14.98;5.85;;;;;;;;;;5111332;28;20104;-49
2022/01/07 00:45:27;;;;;;;16.17;6.38;;;;;;;;;;5093158;28;20469;-47
2022/01/07 00:47:54;;;;;;;25.45;10.63;;;;;;;;;;5080128;28;20123;-47
2022/01/07 00:50:21;;;;;;;14.43;6.13;;;;;;;;;;5072611;28;20146;-47
2022/01/07 00:52:47;;;;;;;13.45;7.43;;;;;;;;;;5090491;28;20056;-48
2022/01/07 00:55:13;;;;;;;10.15;6.45;;;;;;;;;;5091553;28;20043;-47
2022/01/07 00:57:45;;;;;;;14.13;6.90;;;;;;;;;;5091347;28;20123;-48
2022/01/07 01:00:13;;;;;;;14.00;6.55;;;;;;;;;;5072851;28;20097;-48
2022/01/07 01:02:39;;;;;;;12.25;7.15;;;;;;;;;;5071725;28;20204;-47
2022/01/07 01:05:07;;;;;;;12.02;6.50;;;;;;;;;;5090557;28;20400;-48
2022/01/07 01:07:33;;;;;;;13.07;6.90;;;;;;;;;;5089370;28;20039;-50
2022/01/07 01:10:01;;;;;;;15.35;6.13;;;;;;;;;;5071492;28;20048;-47
2022/01/07 01:12:27;;;;;;;13.35;5.70;;;;;;;;;;5090005;28;20056;-47
2022/01/07 01:14:53;;;;;;;14.05;6.40;;;;;;;;;;5090168;28;20040;-47
2022/01/07 01:17:19;;;;;;;13.07;6.35;;;;;;;;;;5071533;28;20217;-48
2022/01/07 01:19:45;;;;;;;10.60;4.90;;;;;;;;;;5099134;28;20055;-46
2022/01/07 01:22:12;;;;;;;17.40;7.30;;;;;;;;;;5109378;28;20066;-49
2022/01/07 01:24:38;;;;;;;10.93;6.38;;;;;;;;;;5110609;28;20043;-48
2022/01/07 01:27:05;;;;;;;15.00;6.15;;;;;;;;;;5111052;28;20423;-50
2022/01/07 01:29:32;;;;;;;14.30;6.65;;;;;;;;;;5111240;28;20493;-48
2022/01/07 01:31:58;;;;;;;13.38;7.03;;;;;;;;;;5110284;28;20064;-48
2022/01/07 01:34:24;;;;;;;13.75;7.13;;;;;;;;;;5101049;28;20032;-47
2022/01/07 01:36:50;;;;;;;10.73;6.88;;;;;;;;;;5098518;28;20040;-47
2022/01/07 01:39:16;;;;;;;13.70;7.25;;;;;;;;;;5090440;28;20040;-48
2022/01/07 01:41:43;;;;;;;14.48;6.70;;;;;;;;;;5089917;28;20086;-48
2022/01/07 01:44:10;;;;;;;14.13;7.85;;;;;;;;;;5090261;28;20123;-50
2022/01/07 01:46:36;;;;;;;15.60;7.53;;;;;;;;;;5090239;28;20135;-48
2022/01/07 01:49:03;;;;;;;12.60;6.63;;;;;;;;;;5090266;28;20062;-47
2022/01/07 01:51:33;;;;;;;10.95;7.05;;;;;;;;;;5089790;28;20040;-48
2022/01/07 01:54:00;;;;;;;17.65;7.93;;;;;;;;;;5090086;28;20040;-48
2022/01/07 01:56:26;;;;;;;15.20;8.00;;;;;;;;;;5090411;28;20123;-50
2022/01/07 01:58:52;;;;;;;15.95;7.90;;;;;;;;;;5090263;28;20051;-49
2022/01/07 02:01:18;;;;;;;13.85;8.05;;;;;;;;;;5089717;28;20043;-49
2022/01/07 02:03:45;;;;;;;16.90;8.77;;;;;;;;;;5090097;28;20079;-49
2022/01/07 02:06:11;;;;;;;14.13;8.27;;;;;;;;;;5089799;28;20061;-48
2022/01/07 02:08:37;;;;;;;14.45;8.88;;;;;;;;;;5089990;28;20051;-48
2022/01/07 02:11:05;;;;;;;16.73;8.77;;;;;;;;;;5071800;28;20523;-49
2022/01/07 02:13:31;;;;;;;16.77;9.30;;;;;;;;;;5090100;28;20282;-52
2022/01/07 02:15:57;;;;;;;16.88;9.15;;;;;;;;;;5090221;28;20048;-50
2022/01/07 02:18:23;;;;;;;15.40;8.57;;;;;;;;;;5090199;28;20052;-49
2022/01/07 02:20:49;;;;;;;13.65;9.15;;;;;;;;;;5089721;28;20553;-48
2022/01/07 02:23:17;;;;;;;19.60;9.82;;;;;;;;;;5089880;28;20515;-49
2022/01/07 02:25:47;;;;;;;19.25;9.38;;;;;;;;;;5090199;28;20040;-49
2022/01/07 02:28:14;;;;;;;15.13;8.02;;;;;;;;;;5090149;28;20059;-49
2022/01/07 02:30:40;;;;;;;16.35;9.80;;;;;;;;;;5090142;28;20485;-46
2022/01/07 02:33:09;;;;;;;15.05;9.30;;;;;;;;;;5089460;28;20469;-47
2022/01/07 02:35:36;;;;;;;13.82;9.43;;;;;;;;;;5102212;28;20050;-48
2022/01/07 02:38:03;;;;;;;19.55;9.45;;;;;;;;;;5080419;28;20052;-48
2022/01/07 02:40:29;;;;;;;21.38;10.63;;;;;;;;;;5090045;28;20497;-48
2022/01/07 02:42:58;;;;;;;16.98;10.68;;;;;;;;;;5089445;28;20040;-48
2022/01/07 02:45:24;;;;;;;23.50;12.52;;;;;;;;;;5089735;28;20071;-47
2022/01/07 02:47:55;;;;;;;15.95;10.45;;;;;;;;;;5089667;28;20039;-48
2022/01/07 02:50:23;;;;;;;17.58;10.25;;;;;;;;;;5092155;28;20097;-50
2022/01/07 02:52:49;;;;;;;18.95;11.70;;;;;;;;;;5075235;28;20508;-50
2022/01/07 02:55:19;;;;;;;18.20;11.63;;;;;;;;;;5093452;28;20100;-50
2022/01/07 02:57:45;;;;;;;20.92;12.30;;;;;;;;;;5093513;28;20485;-50
2022/01/07 03:00:11;;;;;;;17.02;11.45;;;;;;;;;;5093243;28;20504;-47
2022/01/07 03:02:37;;;;;;;17.17;11.38;;;;;;;;;;5092484;28;20386;-49
2022/01/07 03:05:04;;;;;;;18.17;11.90;;;;;;;;;;5093371;28;20032;-49
2022/01/07 03:07:30;;;;;;;15.82;10.95;;;;;;;;;;5093389;28;20043;-51
2022/01/07 03:09:56;;;;;;;20.38;11.80;;;;;;;;;;5093875;28;20382;-50
2022/01/07 03:12:22;;;;;;;19.05;12.38;;;;;;;;;;5093712;28;20043;-50
2022/01/07 03:14:49;;;;;;;16.27;11.10;;;;;;;;;;5094336;28;20051;-50
2022/01/07 03:17:16;;;;;;;21.17;12.88;;;;;;;;;;5093115;28;20048;-51
2022/01/07 03:19:42;;;;;;;18.40;12.60;;;;;;;;;;5093555;28;20081;-51
2022/01/07 03:22:13;;;;;;;15.68;11.68;;;;;;;;;;5093159;28;20119;-52
2022/01/07 03:24:40;;;;;;;15.70;12.13;;;;;;;;;;5093014;28;20059;-50
2022/01/07 03:27:06;;;;;;;21.08;12.20;;;;;;;;;;5093027;28;20047;-48
2022/01/07 03:29:33;;;;;;;17.20;10.25;;;;;;;;;;5092880;28;20115;-49
2022/01/07 03:31:59;;;;;;;19.33;12.80;;;;;;;;;;5092266;28;20069;-49
2022/01/07 03:34:25;;;;;;;19.23;13.07;;;;;;;;;;5092666;28;20039;-49
2022/01/07 03:36:51;;;;;;;20.30;12.52;;;;;;;;;;5092860;28;20085;-48
2022/01/07 03:39:17;;;;;;;18.05;12.75;;;;;;;;;;5074415;28;20047;-48
2022/01/07 03:41:44;;;;;;;18.70;12.68;;;;;;;;;;5091917;28;20094;-48
2022/01/07 03:44:10;;;;;;;18.80;11.57;;;;;;;;;;5092065;28;20044;-47
2022/01/07 03:46:37;;;;;;;20.75;11.95;;;;;;;;;;5092733;28;20039;-49
2022/01/07 03:49:03;;;;;;;20.27;12.02;;;;;;;;;;5092411;28;20401;-51
2022/01/07 03:51:29;;;;;;;19.13;12.32;;;;;;;;;;5091410;28;20047;-47
2022/01/07 03:53:58;;;;;;;21.50;11.95;;;;;;;;;;5084919;28;20040;-49
2022/01/07 03:56:24;;;;;;;19.63;12.57;;;;;;;;;;5112945;28;20513;-49
2022/01/07 03:58:50;;;;;;;17.58;11.45;;;;;;;;;;5112043;28;20492;-50
2022/01/07 04:01:16;;;;;;;16.02;11.85;;;;;;;;;;5112211;28;20124;-49
2022/01/07 04:03:42;;;;;;;22.58;14.45;;;;;;;;;;5112353;28;20512;-49
2022/01/07 04:06:08;;;;;;;16.77;11.77;;;;;;;;;;5112513;28;20054;-48
2022/01/07 04:08:37;;;;;;;15.70;11.10;;;;;;;;;;5112471;28;20042;-48
2022/01/07 04:11:03;;;;;;;20.02;13.63;;;;;;;;;;5112031;28;20043;-47
2022/01/07 04:13:29;;;;;;;19.50;12.55;;;;;;;;;;5112044;28;20036;-48
2022/01/07 04:15:55;;;;;;;20.30;13.32;;;;;;;;;;5094251;28;20557;-49
2022/01/07 04:18:21;;;;;;;22.42;13.02;;;;;;;;;;5094176;28;20528;-48
2022/01/07 04:20:47;;;;;;;18.55;12.73;;;;;;;;;;5111935;28;20044;-52
2022/01/07 04:23:14;;;;;;;24.20;13.35;;;;;;;;;;5111969;28;20586;-49
2022/01/07 04:25:40;;;;;;;19.85;12.55;;;;;;;;;;5112129;28;20047;-48
2022/01/07 04:28:07;;;;;;;19.42;11.73;;;;;;;;;;5111748;28;20044;-49
2022/01/07 04:30:38;;;;;;;18.85;11.40;;;;;;;;;;5093783;28;20484;-47
2022/01/07 04:33:04;;;;;;;21.70;13.13;;;;;;;;;;5111544;28;20071;-49
2022/01/07 04:35:34;;;;;;;19.33;10.85;;;;;;;;;;5111853;28;20039;-48
2022/01/07 04:38:01;;;;;;;16.42;10.45;;;;;;;;;;5112270;28;20560;-48
2022/01/07 04:40:27;;;;;;;16.92;11.70;;;;;;;;;;5111337;28;20270;-49
2022/01/07 04:42:53;;;;;;;18.70;11.00;;;;;;;;;;5111482;28;20050;-48
2022/01/07 04:45:19;;;;;;;15.50;10.40;;;;;;;;;;5088294;28;20038;-48
2022/01/07 04:47:46;;;;;;;19.48;12.32;;;;;;;;;;5089957;28;20123;-49
2022/01/07 04:50:14;;;;;;;20.83;12.43;;;;;;;;;;5081592;28;20043;-47
2022/01/07 04:52:43;;;;;;;18.52;10.52;;;;;;;;;;5090081;28;20040;-48
2022/01/07 04:55:18;;;;;;;16.80;10.65;;;;;;;;;;5089992;28;20499;-49
2022/01/07 04:57:45;;;;;;;13.80;10.35;;;;;;;;;;5090929;28;20051;-49
2022/01/07 05:00:11;;;;;;;17.58;11.32;;;;;;;;;;5090282;28;20039;-50
2022/01/07 05:02:37;;;;;;;19.42;11.48;;;;;;;;;;5089963;28;20222;-46
2022/01/07 05:05:04;;;;;;;19.52;11.32;;;;;;;;;;5071957;28;20067;-48
2022/01/07 05:07:41;;;;;;;18.05;11.77;;;;;;;;;;5091165;28;20040;-46
2022/01/07 05:10:09;;;;;;;13.35;9.00;;;;;;;;;;5101594;28;20039;-46
2022/01/07 05:12:38;;;;;;;15.82;10.88;;;;;;;;;;5097805;28;20035;-49
2022/01/07 05:15:05;;;;;;;14.27;11.38;;;;;;;;;;5100632;28;20031;-47
2022/01/07 05:17:31;;;;;;;14.40;10.90;;;;;;;;;;5102111;28;20040;-49
2022/01/07 05:19:58;;;;;;;15.10;10.52;;;;;;;;;;5098864;28;20072;-48
2022/01/07 05:22:28;;;;;;;13.80;8.93;;;;;;;;;;5090161;28;20036;-52
2022/01/07 05:24:54;;;;;;;15.05;9.50;;;;;;;;;;5072604;28;20500;-48
2022/01/07 05:27:20;;;;;;;14.23;10.00;;;;;;;;;;5090681;28;20071;-49
2022/01/07 05:29:46;;;;;;;14.27;11.02;;;;;;;;;;5090503;28;20036;-49
2022/01/07 05:32:12;;;;;;;11.93;10.15;;;;;;;;;;5093659;28;20404;-48
2022/01/07 05:34:38;;;;;;;13.40;10.60;;;;;;;;;;5093613;28;20446;-48
2022/01/07 05:37:04;;;;;;;12.30;8.77;;;;;;;;;;5090099;28;20122;-48
2022/01/07 05:39:31;;;;;;;15.52;10.52;;;;;;;;;;5071411;28;20086;-48
2022/01/07 05:41:58;;;;;;;12.43;9.18;;;;;;;;;;5086265;28;20485;-47
2022/01/07 05:44:24;;;;;;;12.60;10.05;;;;;;;;;;5088754;28;20047;-48
2022/01/07 05:46:50;;;;;;;14.40;8.88;;;;;;;;;;5088733;28;20132;-47
2022/01/07 05:49:16;;;;;;;12.43;9.73;;;;;;;;;;5088431;28;20042;-48
2022/01/07 05:51:42;;;;;;;12.75;9.57;;;;;;;;;;5069958;28;20044;-48
2022/01/07 05:54:09;;;;;;;12.30;9.38;;;;;;;;;;5088130;28;20076;-47
2022/01/07 05:56:36;;;;;;;10.18;8.60;;;;;;;;;;5096424;28;20044;-47
2022/01/07 05:59:02;;;;;;;12.65;9.35;;;;;;;;;;5102461;28;20051;-50
2022/01/07 06:01:28;;;;;;;13.50;10.30;;;;;;;;;;5110194;28;20036;-49
2022/01/07 06:03:54;;;;;;;12.52;9.77;;;;;;;;;;5110755;28;20039;-46
2022/01/07 06:06:20;;;;;;;11.95;9.32;;;;;;;;;;5110337;28;20131;-47
2022/01/07 06:08:46;;;;;;;11.13;9.23;;;;;;;;;;5110343;28;20035;-50
2022/01/07 06:11:12;;;;;;;12.70;8.32;;;;;;;;;;5099436;28;20130;-47
2022/01/07 06:13:39;;;;;;;13.35;9.25;;;;;;;;;;5101433;28;20481;-48
2022/01/07 06:16:06;;;;;;;13.65;9.18;;;;;;;;;;5109983;28;20050;-48
2022/01/07 06:18:32;;;;;;;14.07;9.13;;;;;;;;;;5100126;28;20542;-47
2022/01/07 06:20:58;;;;;;;10.70;8.90;;;;;;;;;;5090465;28;20063;-49
2022/01/07 06:23:24;;;;;;;13.18;9.40;;;;;;;;;;5089946;28;20498;-47
2022/01/07 06:25:50;;;;;;;13.63;9.90;;;;;;;;;;5092867;28;20072;-47
2022/01/07 06:28:16;;;;;;;8.57;7.68;;;;;;;;;;5094196;28;20043;-48
2022/01/07 06:30:42;;;;;;;10.88;8.73;;;;;;;;;;5093763;28;20051;-49
2022/01/07 06:33:11;;;;;;;14.07;9.15;;;;;;;;;;5093264;28;20122;-49
2022/01/07 06:35:38;;;;;;;11.40;9.07;;;;;;;;;;5094080;28;20397;-48
2022/01/07 06:38:13;;;;;;;12.32;8.98;;;;;;;;;;5095533;28;20070;-47
2022/01/07 06:40:39;;;;;;;13.55;9.50;;;;;;;;;;5092546;28;20127;-49
2022/01/07 06:43:14;;;;;;;18.30;10.45;;;;;;;;;;5091562;28;20032;-47
2022/01/07 06:45:46;;;;;;;12.20;9.13;;;;;;;;;;5092834;28;20109;-48
2022/01/07 06:48:12;;;;;;;12.73;9.77;;;;;;;;;;5094522;28;20516;-48
2022/01/07 06:50:38;;;;;;;11.65;9.82;;;;;;;;;;5093383;28;20043;-47
2022/01/07 06:53:04;;;;;;;12.73;9.98;;;;;;;;;;5093081;28;20123;-47
2022/01/07 06:55:31;;;;;;;11.90;9.52;;;;;;;;;;5093457;28;20067;-47
2022/01/07 06:57:57;;;;;;;14.02;10.00;;;;;;;;;;5093294;28;20073;-49
2022/01/07 07:00:23;;;;;;;11.23;9.45;;;;;;;;;;5103495;28;20043;-50
2022/01/07 07:02:49;;;;;;;12.82;9.60;;;;;;;;;;5110308;28;20032;-48
2022/01/07 07:05:15;;;;;;;10.52;9.43;;;;;;;;;;5112662;28;20035;-48
2022/01/07 07:07:41;;;;;;;12.10;9.57;;;;;;;;;;5094535;28;20511;-49
2022/01/07 07:10:07;;;;;;;14.68;10.63;;;;;;;;;;5113393;28;20047;-49
2022/01/07 07:12:33;;;;;;;12.90;10.93;;;;;;;;;;5112480;28;20392;-47
2022/01/07 07:15:00;;;;;;;15.13;10.68;;;;;;;;;;5113649;28;20043;-46
2022/01/07 07:17:26;;;;;;;14.80;10.57;;;;;;;;;;5112795;28;20046;-47
2022/01/07 07:19:52;;;;;;;11.73;9.95;;;;;;;;;;5113568;28;20073;-46
2022/01/07 07:22:18;;;;;;;14.52;10.52;;;;;;;;;;5113236;28;20035;-45
2022/01/07 07:24:44;;;;;;;19.48;12.95;;;;;;;;;;5113130;28;20035;-49
2022/01/07 07:27:10;;;;;;;14.65;12.00;;;;;;;;;;5112066;28;20130;-46
2022/01/07 07:29:36;;;;;;;15.63;11.82;;;;;;;;;;5112992;28;20040;-45
2022/01/07 07:32:06;;;;;;;16.92;12.80;;;;;;;;;;5112313;28;20079;-46
2022/01/07 07:36:59;;;;;;;16.80;12.82;;;;;;;;;;5112714;28;20046;-47
2022/01/07 07:39:25;;;;;;;14.60;12.50;;;;;;;;;;5112831;28;20040;-46
2022/01/07 07:41:54;;;;;;;15.90;12.18;;;;;;;;;;5094116;28;20044;-48
2022/01/07 07:44:20;;;;;;;17.40;13.73;;;;;;;;;;5113024;28;20502;-46
2022/01/07 07:46:46;;;;;;;19.38;13.18;;;;;;;;;;5113013;28;20396;-45
2022/01/07 07:49:13;;;;;;;17.65;13.85;;;;;;;;;;5113189;28;20366;-48
2022/01/07 07:51:46;;;;;;;20.20;13.23;;;;;;;;;;5112602;28;20066;-47
2022/01/07 07:54:12;;;;;;;;;;;;;;;;;;5113275;28;20411;-49
2022/01/07 07:56:38;;;;;;;19.98;13.18;;;;;;;;;;5112949;28;19915;-46
2022/01/07 07:59:05;;;;;;;20.38;13.68;;;;;;;;;;5112670;28;20050;-48
2022/01/07 08:01:31;;;;;;;21.50;14.10;;;;;;;;;;5111780;28;20541;-46
2022/01/07 08:03:57;;;;;;;19.75;14.82;;;;;;;;;;5093812;28;20093;-47
2022/01/07 08:06:23;;;;;;;25.13;16.02;;;;;;;;;;5112896;28;20430;-45
2022/01/07 08:08:49;;;;;;;22.75;16.52;;;;;;;;;;5113145;28;20480;-44
2022/01/07 08:11:16;;;;;;;21.98;16.33;;;;;;;;;;5113371;28;20504;-46
2022/01/07 08:16:27;;;;;;;24.27;17.95;;;;;;;;;;5112916;28;20051;-44
2022/01/07 08:18:54;;;;;;;23.95;17.23;;;;;;;;;;5112430;28;20115;-45
2022/01/07 08:21:21;;;;;;;26.48;17.58;;;;;;;;;;5112459;28;20389;-46
2022/01/07 08:23:47;;;;;;;22.35;16.63;;;;;;;;;;5112669;28;20440;-45
2022/01/07 08:26:15;;;;;;;25.35;18.58;;;;;;;;;;5112467;28;20043;-44
2022/01/07 08:28:46;;;;;;;26.92;17.63;;;;;;;;;;5112466;28;20070;-45
2022/01/07 08:31:25;;;;;;;27.23;17.30;;;;;;;;;;5112562;28;20067;-45
2022/01/07 08:36:36;;;;;;;21.38;17.33;;;;;;;;;;5112189;28;20047;-45
2022/01/07 08:39:18;;;;;;;29.05;18.50;;;;;;;;;;5112211;28;20047;-45
2022/01/07 08:41:44;;;;;;;28.63;18.40;;;;;;;;;;5111772;28;20035;-45
2022/01/07 08:44:11;;;;;;;28.92;19.13;;;;;;;;;;5112580;28;20412;-46
2022/01/07 08:46:37;;;;;;;26.92;17.15;;;;;;;;;;5111944;28;20481;-45
2022/01/07 08:49:10;;;;;;;30.08;19.23;;;;;;;;;;5111606;28;20702;-45
2022/01/07 08:51:42;;;;;;;33.15;18.80;;;;;;;;;;5093455;28;20039;-46
2022/01/07 08:54:08;;;;;;;30.05;19.98;;;;;;;;;;5112273;28;20067;-45
2022/01/07 08:56:35;;;;;;;33.70;20.75;;;;;;;;;;5111985;28;20087;-46
2022/01/07 08:59:02;;;;;;;29.55;20.13;;;;;;;;;;5112105;28;20051;-45
2022/01/07 09:01:28;;;;;;;30.17;20.63;;;;;;;;;;5111641;28;20370;-46
2022/01/07 09:03:54;;;;;;;37.42;21.58;;;;;;;;;;5111512;28;20036;-46
2022/01/07 09:06:20;;;;;;;32.58;20.45;;;;;;;;;;5111526;28;20075;-45
2022/01/07 09:08:47;;;;;;;36.40;22.52;;;;;;;;;;5111781;28;20078;-45
2022/01/07 09:11:13;;;;;;;34.78;21.75;;;;;;;;;;5111617;28;20051;-45
2022/01/07 09:13:42;;;;;;;34.83;21.33;;;;;;;;;;5111635;28;20126;-46
2022/01/07 09:16:08;;;;;;;33.83;22.45;;;;;;;;;;5111625;28;20039;-46
2022/01/07 09:18:34;;;;;;;36.47;25.13;;;;;;;;;;5093555;28;20044;-47
2022/01/07 09:21:03;;;;;;;36.40;24.98;;;;;;;;;;5093137;28;20519;-45
2022/01/07 09:23:32;;;;;;;34.83;22.02;;;;;;;;;;5111575;28;20093;-46
2022/01/07 09:25:58;;;;;;;32.78;21.10;;;;;;;;;;5111604;28;20042;-46
2022/01/07 09:28:24;;;;;;;27.77;21.02;;;;;;;;;;5111528;28;20118;-47
2022/01/07 09:30:50;;;;;;;31.23;21.20;;;;;;;;;;5111486;28;20396;-46
2022/01/07 09:33:19;;;;;;;29.98;20.92;;;;;;;;;;5111445;28;20118;-47
2022/01/07 09:35:45;;;;;;;31.95;20.55;;;;;;;;;;5111416;28;20035;-45
2022/01/07 09:38:11;;;;;;;31.35;20.65;;;;;;;;;;5093388;28;20220;-46
2022/01/07 09:40:37;;;;;;;30.83;21.10;;;;;;;;;;5110789;28;21375;-46
2022/01/07 09:43:05;;;;;;;28.33;19.73;;;;;;;;;;5111275;28;20058;-46
2022/01/07 09:45:32;;;;;;;31.00;20.98;;;;;;;;;;5111237;28;20035;-47
2022/01/07 09:47:58;;;;;;;31.35;19.25;;;;;;;;;;5110726;28;20523;-47
2022/01/07 09:50:41;;;;;;;23.40;17.88;;;;;;;;;;5110849;28;20043;-45
2022/01/07 09:53:09;;;;;;;21.67;17.13;;;;;;;;;;5110191;28;20058;-46
2022/01/07 09:55:35;;;;;;;25.13;17.38;;;;;;;;;;5110528;28;20047;-47
2022/01/07 09:58:02;;;;;;;24.05;18.17;;;;;;;;;;5111266;28;20391;-48
2022/01/07 10:00:54;;;;;;;26.20;17.70;;;;;;;;;;5111030;28;20043;-45
2022/01/07 10:03:23;;;;;;;22.83;17.05;;;;;;;;;;5108779;28;20497;-47
2022/01/07 10:05:50;;;;;;;24.52;18.08;;;;;;;;;;5110935;28;20031;-46
2022/01/07 10:08:46;;;;;;;25.85;18.70;;;;;;;;;;5110806;28;20035;-45
2022/01/07 10:11:19;;;;;;;28.98;18.60;;;;;;;;;;5110512;28;20507;-45
2022/01/07 10:13:45;;;;;;;27.75;19.23;;;;;;;;;;5110936;28;20077;-46
2022/01/07 10:16:22;;;;;;;26.55;18.50;;;;;;;;;;5111010;28;20500;-46
2022/01/07 10:18:49;;;;;;;23.27;17.30;;;;;;;;;;5110876;28;20044;-46
2022/01/07 10:21:16;;;;;;;23.05;16.92;;;;;;;;;;5110935;28;20083;-48
2022/01/07 10:23:43;;;;;;;29.95;18.30;;;;;;;;;;5092660;28;20040;-49
2022/01/07 10:26:17;;;;;;;23.98;18.23;;;;;;;;;;5092747;28;20119;-47
2022/01/07 10:28:44;;;;;;;23.38;15.20;;;;;;;;;;5110555;28;20104;-46
2022/01/07 10:31:20;;;;;;;21.58;15.35;;;;;;;;;;5110568;28;20118;-47
2022/01/07 10:33:48;;;;;;;23.58;15.18;;;;;;;;;;5110695;28;20039;-47
2022/01/07 10:36:25;;;;;;;16.55;11.98;;;;;;;;;;5110794;28;20039;-47
2022/01/07 10:38:57;;;;;;;14.32;10.95;;;;;;;;;;5110468;28;20042;-47
2022/01/07 10:41:23;;;;;;;14.48;10.00;;;;;;;;;;5091865;28;20119;-47
2022/01/07 10:43:51;;;;;;;12.95;8.85;;;;;;;;;;5110296;28;20032;-45
2022/01/07 10:46:24;;;;;;;11.20;7.40;;;;;;;;;;5110801;28;20089;-45
2022/01/07 10:48:53;;;;;;;10.02;8.02;;;;;;;;;;5110293;28;20043;-47
2022/01/07 10:51:23;;;;;;;10.88;8.70;;;;;;;;;;5110161;28;20066;-46
2022/01/07 10:54:10;;;;;;;11.77;8.55;;;;;;;;;;5109911;28;20096;-45
2022/01/07 10:56:36;;;;;;;11.27;7.72;;;;;;;;;;5110244;28;20048;-45
2022/01/07 10:59:03;;;;;;;9.50;7.68;;;;;;;;;;5110065;28;20058;-46
2022/01/07 11:01:45;;;;;;;12.02;8.45;;;;;;;;;;5110047;28;20145;-45
2022/01/07 11:04:15;;;;;;;14.05;8.52;;;;;;;;;;5110092;28;20373;-46
2022/01/07 11:06:42;;;;;;;13.25;9.93;;;;;;;;;;5091862;28;20047;-46
2022/01/07 11:09:12;;;;;;;16.10;12.05;;;;;;;;;;5109631;28;20044;-47
2022/01/07 11:12:10;;;;;;;18.02;11.68;;;;;;;;;;5111784;28;20515;-46
2022/01/07 11:14:36;;;;;;;13.27;10.57;;;;;;;;;;5090021;28;20052;-47
2022/01/07 11:17:04;;;;;;;14.90;10.82;;;;;;;;;;5112673;28;20074;-47
2022/01/07 11:19:35;;;;;;;18.40;12.13;;;;;;;;;;5113405;28;20050;-47
2022/01/07 11:22:02;;;;;;;18.98;13.55;;;;;;;;;;5112918;28;20055;-48
2022/01/07 11:24:35;;;;;;;29.40;18.48;;;;;;;;;;5113213;28;20039;-47
2022/01/07 11:27:02;;;;;;;25.40;16.25;;;;;;;;;;5113852;28;20369;-48
2022/01/07 11:29:29;;;;;;;21.83;14.35;;;;;;;;;;5113524;28;20405;-48
2022/01/07 11:31:55;;;;;;;26.65;18.55;;;;;;;;;;5112888;28;20043;-47
2022/01/07 11:34:24;;;;;;;22.85;16.45;;;;;;;;;;5113031;28;20035;-48
2022/01/07 11:37:00;;;;;;;24.75;17.42;;;;;;;;;;5113012;28;20040;-47
2022/01/07 11:39:40;;;;;;;25.83;18.50;;;;;;;;;;5113176;28;20051;-47
2022/01/07 11:42:08;;;;;;;21.20;14.85;;;;;;;;;;5113379;28;20039;-48
2022/01/07 11:44:34;;;;;;;23.65;16.17;;;;;;;;;;5113845;28;20043;-47
2022/01/07 11:47:13;;;;;;;22.63;12.73;;;;;;;;;;5095234;28;20064;-49
2022/01/07 11:49:39;;;;;;;20.08;12.93;;;;;;;;;;5113802;28;20114;-48
2022/01/07 11:52:24;;;;;;;13.70;8.10;;;;;;;;;;5113682;28;20433;-48
2022/01/07 11:55:08;;;;;;;13.98;9.48;;;;;;;;;;5113864;28;20063;-46
2022/01/07 11:57:49;;;;;;;8.10;3.33;;;;;;;;;;5113671;28;20075;-46
2022/01/07 12:00:16;;;;;;;5.00;2.97;;;;;;;;;;5113184;28;20045;-46
2022/01/07 12:03:33;;;;;;;5.95;2.70;;;;;;;;;;5112961;28;20043;-47
2022/01/07 12:05:53;;;;;;;3.97;2.55;;;;;;;;;;5109916;28;20044;-45
2022/01/07 12:08:19;;;;;;;4.00;2.50;;;;;;;;;;5112944;28;20502;-46
2022/01/07 12:10:45;;;;;;;6.32;1.45;;;;;;;;;;5112679;28;20080;-44
2022/01/07 12:13:11;;;;;;;6.07;2.85;;;;;;;;;;5112653;28;20035;-45
2022/01/07 12:15:39;;;;;;;3.15;1.58;;;;;;;;;;5112640;28;20400;-46
2022/01/07 12:18:12;;;;;;;5.05;1.23;;;;;;;;;;5112685;28;20606;-48
2022/01/07 12:20:49;;;;;;;7.78;1.45;;;;;;;;;;5112593;28;20040;-48
2022/01/07 12:23:19;;;;;;;4.30;1.25;;;;;;;;;;5111387;28;20086;-49
2022/01/07 12:25:53;;;;;;;4.47;1.70;;;;;;;;;;5112520;28;20043;-49
2022/01/07 12:28:20;;;;;;;6.25;1.90;;;;;;;;;;5113399;28;20043;-48
2022/01/07 12:30:47;;;;;;;6.15;1.95;;;;;;;;;;5112935;28;20113;-51
2022/01/07 12:33:16;;;;;;;4.82;1.40;;;;;;;;;;5113345;28;20046;-49
2022/01/07 12:35:42;;;;;;;3.17;1.23;;;;;;;;;;5112995;28;20362;-48
2022/01/07 12:38:22;;;;;;;3.95;2.50;;;;;;;;;;5112764;28;20036;-47
2022/01/07 12:40:51;;;;;;;5.22;2.80;;;;;;;;;;5112656;28;20417;-49
2022/01/07 12:43:20;;;;;;;5.15;2.22;;;;;;;;;;5093475;28;20043;-47
2022/01/07 12:45:55;;;;;;;8.25;1.90;;;;;;;;;;5111519;28;20079;-45
2022/01/07 12:48:41;;;;;;;2.55;1.30;;;;;;;;;;5111359;28;20136;-46
2022/01/07 12:51:16;;;;;;;6.30;1.80;;;;;;;;;;5107350;28;20390;-46
2022/01/07 12:53:56;;;;;;;3.38;1.52;;;;;;;;;;5108733;28;20049;-47
2022/01/07 12:56:26;;;;;;;4.32;1.63;;;;;;;;;;5108994;28;20070;-46
2022/01/07 12:58:52;;;;;;;3.33;1.90;;;;;;;;;;5106542;28;20070;-46
2022/01/07 13:01:22;;;;;;;3.95;2.00;;;;;;;;;;5083040;28;20173;-49
2022/01/07 13:03:59;;;;;;;5.95;3.08;;;;;;;;;;5110598;28;20047;-46
2022/01/07 13:06:25;;;;;;;5.30;3.00;;;;;;;;;;5111142;28;20043;-46
2022/01/07 13:08:51;;;;;;;5.63;3.78;;;;;;;;;;5092601;28;20075;-46
2022/01/07 13:11:19;;;;;;;7.78;4.13;;;;;;;;;;5110979;28;20035;-45
2022/01/07 13:13:45;;;;;;;9.45;4.78;;;;;;;;;;5111046;28;20048;-45
2022/01/07 13:16:21;;;;;;;10.65;5.82;;;;;;;;;;5111129;28;20389;-46
2022/01/07 13:18:50;;;;;;;5.63;4.95;;;;;;;;;;5111151;28;20046;-45
2022/01/07 13:21:17;;;;;;;5.85;3.72;;;;;;;;;;5109966;28;20493;-48
2022/01/07 13:23:43;;;;;;;9.93;4.00;;;;;;;;;;5109737;28;20039;-48
2022/01/07 13:26:09;;;;;;;6.22;4.28;;;;;;;;;;5111071;28;20047;-48
2022/01/07 13:28:43;;;;;;;8.02;4.25;;;;;;;;;;5111607;28;20472;-48
2022/01/07 13:31:10;;;;;;;7.68;4.32;;;;;;;;;;5111333;28;20112;-47
2022/01/07 13:33:37;;;;;;;10.55;4.22;;;;;;;;;;5111177;28;20123;-48
2022/01/07 13:36:07;;;;;;;5.80;3.72;;;;;;;;;;5111143;28;20088;-48
2022/01/07 13:38:34;;;;;;;9.98;4.38;;;;;;;;;;5111134;28;20042;-47
2022/01/07 13:41:20;;;;;;;9.93;4.40;;;;;;;;;;5110659;28;20047;-47
2022/01/07 13:43:46;;;;;;;9.15;4.10;;;;;;;;;;5111260;28;20039;-50
2022/01/07 13:46:12;;;;;;;9.07;5.20;;;;;;;;;;5111245;28;20139;-49
2022/01/07 13:48:50;;;;;;;9.48;5.07;;;;;;;;;;5111381;28;20046;-47
2022/01/07 13:51:17;;;;;;;10.93;4.70;;;;;;;;;;5110842;28;20039;-49
2022/01/07 13:53:43;;;;;;;10.50;5.30;;;;;;;;;;5111436;28;20408;-48
2022/01/07 13:56:10;;;;;;;8.18;5.88;;;;;;;;;;5111001;28;20509;-47
2022/01/07 13:58:36;;;;;;;8.63;5.95;;;;;;;;;;5092415;28;20128;-48
2022/01/07 14:01:06;;;;;;;10.00;5.78;;;;;;;;;;5110862;28;20047;-48
2022/01/07 14:03:49;;;;;;;8.98;5.82;;;;;;;;;;5110778;28;20398;-48
2022/01/07 14:06:19;;;;;;;12.63;7.75;;;;;;;;;;5110731;28;20040;-51
2022/01/07 14:08:45;;;;;;;9.70;7.18;;;;;;;;;;5111366;28;20039;-45
2022/01/07 14:11:15;;;;;;;8.02;6.03;;;;;;;;;;5110576;28;20043;-46
2022/01/07 14:13:41;;;;;;;10.90;6.28;;;;;;;;;;5111038;28;20614;-47
2022/01/07 14:16:07;;;;;;;12.63;6.97;;;;;;;;;;5110750;28;20489;-48
2022/01/07 14:18:34;;;;;;;13.52;7.45;;;;;;;;;;5110578;28;20054;-47
2022/01/07 14:21:03;;;;;;;24.00;13.52;;;;;;;;;;5110536;28;20044;-48
2022/01/07 14:23:33;;;;;;;13.15;7.68;;;;;;;;;;5110733;28;20065;-49
2022/01/07 14:26:07;;;;;;;15.80;9.23;;;;;;;;;;5110612;28;20043;-47
2022/01/07 14:28:35;;;;;;;11.90;7.18;;;;;;;;;;5110743;28;20040;-49
2022/01/07 14:31:01;;;;;;;13.48;7.15;;;;;;;;;;5110440;28;20035;-47
2022/01/07 14:33:27;;;;;;;13.20;5.90;;;;;;;;;;5091858;28;20044;-47
2022/01/07 14:35:54;;;;;;;14.27;8.45;;;;;;;;;;5110577;28;20119;-46
2022/01/07 14:38:20;;;;;;;10.38;6.63;;;;;;;;;;5110311;28;20476;-47
2022/01/07 14:40:47;;;;;;;11.18;6.50;;;;;;;;;;5109774;28;20083;-46